Time;durP1;ratioP1;P1;durP2;ratioP2;P2;SDS_P1;SDS_P2;PMS_P1;PMS_P2;Temp;Humidity;BMP_temperature;BMP_pressure;BME280_temperature;BME280_humidity;BME280_pressure;Samples;Min_cycle;Max_cycle;Signal;HPM_P1;HPM_P2
2023/07/18 00:00:13;;;;;;;10.60;5.10;;;14.70;87.60;;;;;;5069765;28;20112;-49
2023/07/18 00:02:46;;;;;;;12.85;4.60;;;14.70;87.50;;;;;;5053769;28;20036;-47
2023/07/18 00:05:15;;;;;;;8.60;4.43;;;14.60;87.30;;;;;;5055810;28;20043;-47
2023/07/18 00:07:43;;;;;;;10.70;5.38;;;14.50;87.50;;;;;;5074342;28;20024;-47
2023/07/18 00:10:11;;;;;;;9.45;4.47;;;14.50;87.60;;;;;;5069323;28;20486;-47
2023/07/18 00:12:39;;;;;;;9.20;5.00;;;14.50;87.70;;;;;;5054176;28;20025;-49
2023/07/18 00:15:09;;;;;;;7.50;4.22;;;14.60;87.60;;;;;;5063011;28;20454;-50
2023/07/18 00:17:40;;;;;;;10.70;4.15;;;14.60;87.60;;;;;;5073227;28;20028;-47
2023/07/18 00:20:12;;;;;;;11.80;5.22;;;14.50;87.60;;;;;;5072498;28;20132;-47
2023/07/18 00:22:43;;;;;;;8.77;5.78;;;14.50;87.60;;;;;;5053677;28;20032;-47
2023/07/18 00:25:13;;;;;;;10.10;4.35;;;14.40;87.80;;;;;;5053863;28;20076;-48
2023/07/18 00:27:40;;;;;;;11.57;4.97;;;14.40;87.80;;;;;;5053785;28;20021;-48
2023/07/18 00:30:14;;;;;;;11.48;4.65;;;14.40;87.90;;;;;;5049788;28;20031;-47
2023/07/18 00:32:45;;;;;;;12.73;5.47;;;14.40;87.90;;;;;;5062589;28;20098;-48
2023/07/18 00:35:13;;;;;;;12.93;5.38;;;14.40;88.00;;;;;;5052757;28;20025;-47
2023/07/18 00:37:42;;;;;;;12.63;6.18;;;14.40;87.90;;;;;;5053934;28;20422;-47
2023/07/18 00:40:11;;;;;;;16.77;5.65;;;14.30;88.10;;;;;;5056800;28;20028;-47
2023/07/18 00:42:43;;;;;;;12.27;5.13;;;14.40;88.20;;;;;;5060214;28;20116;-48
2023/07/18 00:45:11;;;;;;;9.65;4.72;;;14.30;88.20;;;;;;5058732;28;20446;-47
2023/07/18 00:47:45;;;;;;;11.48;4.47;;;14.30;88.20;;;;;;5053366;28;20390;-46
2023/07/18 00:50:18;;;;;;;11.25;5.00;;;14.30;88.30;;;;;;5040936;28;20407;-48
2023/07/18 00:52:49;;;;;;;16.77;5.07;;;14.30;88.30;;;;;;5064398;28;20659;-45
2023/07/18 00:55:17;;;;;;;8.57;4.18;;;14.30;88.40;;;;;;5053160;28;20033;-46
2023/07/18 00:57:46;;;;;;;11.07;4.60;;;14.20;88.30;;;;;;5052226;28;20465;-48
2023/07/18 01:00:16;;;;;;;11.43;5.15;;;14.20;88.30;;;;;;5073231;28;20044;-46
2023/07/18 01:02:46;;;;;;;9.90;4.60;;;14.20;88.40;;;;;;5072428;28;20027;-46
2023/07/18 01:05:18;;;;;;;8.70;4.10;;;14.20;88.50;;;;;;5050443;28;20529;-46
2023/07/18 01:07:46;;;;;;;11.13;5.30;;;14.20;88.60;;;;;;5053377;28;20462;-46
2023/07/18 01:10:30;;;;;;;10.73;5.07;;;14.20;88.50;;;;;;5050923;28;20077;-46
2023/07/18 01:12:58;;;;;;;11.20;5.53;;;14.20;88.60;;;;;;5053070;28;20063;-46
2023/07/18 01:15:30;;;;;;;8.02;4.85;;;14.20;88.60;;;;;;5062239;28;20032;-47
2023/07/18 01:17:58;;;;;;;9.95;5.32;;;14.10;88.50;;;;;;5072522;28;20506;-47
2023/07/18 01:20:27;;;;;;;13.88;5.05;;;14.10;88.60;;;;;;5057952;28;20053;-46
2023/07/18 01:23:00;;;;;;;10.27;4.82;;;14.10;88.80;;;;;;5052886;28;20040;-46
2023/07/18 01:25:27;;;;;;;9.93;4.85;;;14.10;88.70;;;;;;5051862;28;20493;-48
2023/07/18 01:27:55;;;;;;;8.27;4.65;;;14.10;88.80;;;;;;5051474;28;20020;-48
2023/07/18 01:30:24;;;;;;;10.20;4.55;;;14.10;88.90;;;;;;5049602;28;20025;-47
2023/07/18 01:32:52;;;;;;;11.07;5.50;;;14.10;88.90;;;;;;5034207;28;20037;-46
2023/07/18 01:35:23;;;;;;;8.32;4.35;;;14.10;89.00;;;;;;5052416;28;20021;-46
2023/07/18 01:37:53;;;;;;;12.65;5.18;;;14.10;88.90;;;;;;5051087;28;20098;-46
2023/07/18 01:40:21;;;;;;;9.75;4.35;;;14.10;88.80;;;;;;5049550;28;20623;-46
2023/07/18 01:42:52;;;;;;;8.57;4.80;;;14.10;88.90;;;;;;5034352;28;20403;-46
2023/07/18 01:45:27;;;;;;;9.80;5.30;;;14.10;89.00;;;;;;5048497;28;20522;-46
2023/07/18 01:47:55;;;;;;;13.90;6.20;;;14.00;88.90;;;;;;5050101;28;20033;-45
2023/07/18 01:50:22;;;;;;;12.32;5.03;;;14.00;88.80;;;;;;5050539;28;20028;-47
2023/07/18 01:52:49;;;;;;;12.18;5.10;;;14.00;89.00;;;;;;5034275;28;20366;-46
2023/07/18 01:55:16;;;;;;;8.73;4.88;;;14.00;88.90;;;;;;5047242;28;20033;-48
2023/07/18 01:57:46;;;;;;;8.50;4.55;;;14.00;89.00;;;;;;5032350;28;20048;-46
2023/07/18 02:00:18;;;;;;;11.43;5.93;;;13.90;88.90;;;;;;5023768;28;20025;-46
2023/07/18 02:02:48;;;;;;;9.52;5.07;;;13.90;89.00;;;;;;5052061;28;20411;-45
2023/07/18 02:05:22;;;;;;;12.13;5.30;;;13.90;89.00;;;;;;5045747;28;20041;-46
2023/07/18 02:07:49;;;;;;;8.70;4.57;;;13.90;88.90;;;;;;5052545;28;20031;-46
2023/07/18 02:10:19;;;;;;;11.32;5.57;;;13.90;89.00;;;;;;5033917;28;20033;-46
2023/07/18 02:12:46;;;;;;;9.35;5.47;;;13.90;89.10;;;;;;5048530;28;20403;-45
2023/07/18 02:15:13;;;;;;;9.65;4.97;;;13.90;89.10;;;;;;5039885;28;20021;-46
2023/07/18 02:17:42;;;;;;;11.70;5.15;;;13.80;89.20;;;;;;5049113;28;20034;-45
2023/07/18 02:20:11;;;;;;;10.30;5.20;;;13.80;89.20;;;;;;5055412;28;20072;-46
2023/07/18 02:22:42;;;;;;;10.20;4.38;;;13.80;89.20;;;;;;5072688;28;20021;-45
2023/07/18 02:25:12;;;;;;;11.32;5.38;;;13.80;89.20;;;;;;5054844;28;20028;-45
2023/07/18 02:27:40;;;;;;;8.82;5.22;;;13.80;89.20;;;;;;5072664;28;20029;-46
2023/07/18 02:30:12;;;;;;;11.95;5.10;;;13.80;89.30;;;;;;5048061;28;20476;-46
2023/07/18 02:32:40;;;;;;;11.30;6.53;;;13.80;89.30;;;;;;5076224;28;20032;-45
2023/07/18 02:35:08;;;;;;;11.20;5.30;;;13.70;89.20;;;;;;5062515;28;20085;-46
2023/07/18 02:37:36;;;;;;;8.35;4.25;;;13.70;89.20;;;;;;5075967;28;20025;-45
2023/07/18 02:40:09;;;;;;;10.63;6.05;;;13.70;89.20;;;;;;5069073;28;20052;-45
2023/07/18 02:42:36;;;;;;;9.18;5.22;;;13.60;89.20;;;;;;5054961;28;20442;-45
2023/07/18 02:45:08;;;;;;;10.93;5.65;;;13.60;89.30;;;;;;5066141;28;20426;-46
2023/07/18 02:47:36;;;;;;;11.75;4.97;;;13.60;89.40;;;;;;5071033;28;20033;-45
2023/07/18 02:50:01;;;;;;;12.05;5.75;;;13.70;89.40;;;;;;5075957;28;20089;-45
2023/07/18 02:52:27;;;;;;;18.15;7.03;;;13.60;89.30;;;;;;5063891;28;20025;-44
2023/07/18 02:54:58;;;;;;;10.60;6.18;;;13.60;89.30;;;;;;5055407;28;20021;-45
2023/07/18 02:57:26;;;;;;;10.52;5.45;;;13.60;89.30;;;;;;5047000;28;20033;-44
2023/07/18 02:59:51;;;;;;;12.45;5.30;;;13.50;89.40;;;;;;5074504;28;20089;-44
2023/07/18 03:02:18;;;;;;;11.73;5.22;;;13.50;89.60;;;;;;5056881;28;20324;-45
2023/07/18 03:04:51;;;;;;;15.25;4.80;;;13.50;89.60;;;;;;5068212;28;20028;-47
2023/07/18 03:07:18;;;;;;;15.23;5.80;;;13.50;89.70;;;;;;5074701;28;20021;-45
2023/07/18 03:09:44;;;;;;;12.60;5.15;;;13.50;89.70;;;;;;5069710;28;20108;-45
2023/07/18 03:12:11;;;;;;;16.08;5.60;;;13.50;89.70;;;;;;5057850;28;20024;-45
2023/07/18 03:14:37;;;;;;;10.27;5.32;;;13.50;89.70;;;;;;5073326;28;20154;-50
2023/07/18 03:17:07;;;;;;;12.98;6.00;;;13.50;89.90;;;;;;5065252;28;20120;-49
2023/07/18 03:19:33;;;;;;;14.65;6.50;;;13.50;90.00;;;;;;5065436;28;20028;-45
2023/07/18 03:22:00;;;;;;;13.80;6.78;;;13.50;89.90;;;;;;5075042;28;20596;-47
2023/07/18 03:24:27;;;;;;;12.45;5.15;;;13.50;89.80;;;;;;5053033;28;20024;-47
2023/07/18 03:26:54;;;;;;;13.80;5.93;;;13.50;89.90;;;;;;5054498;28;20025;-44
2023/07/18 03:29:21;;;;;;;13.40;6.18;;;13.50;90.00;;;;;;5073806;28;20113;-44
2023/07/18 03:31:48;;;;;;;11.82;5.53;;;13.50;90.00;;;;;;5071249;28;20113;-47
2023/07/18 03:34:15;;;;;;;11.00;5.47;;;13.50;90.10;;;;;;5062679;28;20036;-47
2023/07/18 03:36:42;;;;;;;14.20;6.47;;;13.50;90.10;;;;;;5071854;28;20497;-44
2023/07/18 03:39:10;;;;;;;11.38;5.40;;;13.50;90.00;;;;;;5074133;28;20430;-47
2023/07/18 03:41:40;;;;;;;10.15;5.35;;;13.50;90.20;;;;;;5058803;28;20391;-44
2023/07/18 03:44:07;;;;;;;11.57;4.72;;;13.60;90.20;;;;;;5069103;28;20037;-45
2023/07/18 03:46:34;;;;;;;11.00;4.93;;;13.60;90.30;;;;;;5073295;28;20462;-44
2023/07/18 03:49:00;;;;;;;13.63;5.65;;;13.60;90.30;;;;;;5066333;28;20032;-46
2023/07/18 03:51:26;;;;;;;11.20;5.63;;;13.60;90.30;;;;;;5054706;28;20025;-45
2023/07/18 03:53:52;;;;;;;10.98;5.63;;;13.70;90.30;;;;;;5054379;28;20185;-45
2023/07/18 03:56:20;;;;;;;9.98;5.00;;;13.70;90.10;;;;;;5073942;28;20391;-44
2023/07/18 03:58:47;;;;;;;12.70;5.30;;;13.60;90.20;;;;;;5073602;28;20104;-44
2023/07/18 04:01:14;;;;;;;9.25;5.72;;;13.70;90.40;;;;;;5070702;28;20028;-45
2023/07/18 04:03:42;;;;;;;11.60;5.13;;;13.70;90.20;;;;;;5054851;28;20025;-44
2023/07/18 04:06:11;;;;;;;12.23;5.28;;;13.80;90.20;;;;;;5072893;28;20020;-44
2023/07/18 04:08:37;;;;;;;11.25;5.32;;;13.80;90.10;;;;;;5056665;28;20641;-43
2023/07/18 04:11:04;;;;;;;11.55;5.80;;;13.80;90.10;;;;;;5065714;28;20505;-44
2023/07/18 04:13:31;;;;;;;14.32;5.85;;;13.90;90.20;;;;;;5042144;28;20029;-45
2023/07/18 04:15:58;;;;;;;16.65;6.13;;;13.90;90.20;;;;;;5073658;28;20024;-44
2023/07/18 04:18:24;;;;;;;14.65;5.65;;;13.90;90.20;;;;;;5057732;28;20188;-45
2023/07/18 04:21:01;;;;;;;10.45;4.68;;;13.90;90.00;;;;;;5053825;28;20045;-43
2023/07/18 04:23:29;;;;;;;12.18;5.28;;;13.90;90.10;;;;;;5055715;28;20032;-43
2023/07/18 04:25:56;;;;;;;12.70;4.82;;;13.90;90.10;;;;;;5074148;28;20104;-45
2023/07/18 04:28:25;;;;;;;12.77;4.57;;;13.90;90.10;;;;;;5067212;28;20423;-44
2023/07/18 04:30:55;;;;;;;11.18;5.22;;;13.90;90.10;;;;;;5071629;28;20028;-44
2023/07/18 04:33:22;;;;;;;11.13;5.70;;;13.90;90.10;;;;;;5073229;28;20043;-43
2023/07/18 04:35:49;;;;;;;11.85;5.25;;;14.00;90.20;;;;;;5069896;28;20052;-45
2023/07/18 04:38:16;;;;;;;9.70;5.32;;;14.00;90.10;;;;;;5054715;28;20074;-43
2023/07/18 04:40:44;;;;;;;12.32;5.57;;;14.10;90.20;;;;;;5072915;28;20056;-43
2023/07/18 04:43:11;;;;;;;10.95;5.30;;;14.10;90.10;;;;;;5054226;28;20032;-43
2023/07/18 04:45:47;;;;;;;9.13;5.00;;;14.10;89.90;;;;;;5066603;28;20032;-44
2023/07/18 04:48:18;;;;;;;10.57;5.80;;;14.10;89.70;;;;;;5071249;28;20024;-45
2023/07/18 04:50:46;;;;;;;9.32;4.88;;;14.10;89.90;;;;;;5052601;28;20137;-45
2023/07/18 04:53:13;;;;;;;15.13;6.32;;;14.20;90.00;;;;;;5054169;28;20024;-45
2023/07/18 04:55:40;;;;;;;11.10;5.53;;;14.30;90.00;;;;;;5059564;28;20025;-44
2023/07/18 04:58:07;;;;;;;13.68;5.43;;;14.30;89.90;;;;;;5055298;28;20112;-44
2023/07/18 05:00:35;;;;;;;9.40;5.13;;;14.40;89.80;;;;;;5070214;28;20032;-44
2023/07/18 05:03:05;;;;;;;7.68;5.13;;;14.40;89.90;;;;;;5071807;28;20135;-45
2023/07/18 05:05:32;;;;;;;10.40;5.25;;;14.50;89.90;;;;;;5067384;28;20054;-45
2023/07/18 05:08:02;;;;;;;8.18;5.20;;;14.50;89.90;;;;;;5063541;28;20033;-45
2023/07/18 05:10:28;;;;;;;;;;;14.50;89.90;;;;;;5071104;28;20461;-44
2023/07/18 05:12:56;;;;;;;11.13;5.53;;;14.50;90.00;;;;;;5061631;28;19916;-45
2023/07/18 05:15:25;;;;;;;10.55;4.88;;;14.50;90.00;;;;;;5064566;28;20023;-45
2023/07/18 05:17:52;;;;;;;8.27;4.72;;;14.60;90.00;;;;;;5070915;28;20024;-44
2023/07/18 05:20:24;;;;;;;10.25;5.57;;;14.70;90.10;;;;;;5071699;28;20420;-45
2023/07/18 05:22:51;;;;;;;11.13;5.10;;;14.70;90.00;;;;;;5051074;28;20036;-44
2023/07/18 05:25:18;;;;;;;12.07;5.88;;;14.80;90.10;;;;;;5043699;28;20036;-44
2023/07/18 05:27:47;;;;;;;18.35;6.90;;;14.80;90.10;;;;;;5072988;28;20043;-44
2023/07/18 05:30:31;;;;;;;12.15;5.50;;;14.90;90.30;;;;;;5065553;28;20039;-45
2023/07/18 05:32:58;;;;;;;10.23;5.40;;;14.90;90.40;;;;;;5065299;28;20036;-46
2023/07/18 05:35:25;;;;;;;9.73;5.15;;;15.00;90.40;;;;;;5066420;28;20032;-44
2023/07/18 05:37:51;;;;;;;13.98;5.75;;;15.20;90.40;;;;;;5070737;28;20021;-45
2023/07/18 05:40:18;;;;;;;12.75;5.60;;;15.20;90.40;;;;;;5069997;28;20023;-46
2023/07/18 05:42:45;;;;;;;15.38;6.90;;;15.30;90.60;;;;;;5052896;28;20085;-45
2023/07/18 05:45:12;;;;;;;10.82;4.63;;;15.40;90.50;;;;;;5070335;28;20521;-46
2023/07/18 05:47:38;;;;;;;15.10;6.10;;;15.40;90.70;;;;;;5071204;28;20036;-46
2023/07/18 05:50:08;;;;;;;13.80;6.30;;;15.50;90.70;;;;;;5070537;28;20033;-46
2023/07/18 05:52:38;;;;;;;13.30;4.93;;;15.60;90.40;;;;;;5060234;28;20041;-46
2023/07/18 05:55:04;;;;;;;;;;;15.60;90.10;;;;;;5073175;28;20028;-46
2023/07/18 05:57:30;;;;;;;14.77;5.72;;;15.60;89.90;;;;;;5070747;28;19912;-46
2023/07/18 05:59:57;;;;;;;14.18;5.65;;;15.60;89.90;;;;;;5068060;28;20051;-46
2023/07/18 06:02:26;;;;;;;13.65;5.20;;;15.60;89.90;;;;;;5055758;28;20549;-48
2023/07/18 06:04:53;;;;;;;10.70;4.90;;;15.70;90.10;;;;;;5058303;28;20036;-48
2023/07/18 06:07:19;;;;;;;13.00;5.10;;;15.80;89.90;;;;;;5059093;28;20464;-46
2023/07/18 06:09:51;;;;;;;12.27;5.60;;;15.90;90.00;;;;;;5055758;28;20041;-47
2023/07/18 06:12:18;;;;;;;10.40;4.65;;;15.90;89.70;;;;;;5057250;28;20021;-46
2023/07/18 06:14:45;;;;;;;14.57;6.38;;;16.00;89.90;;;;;;5073714;28;20126;-47
2023/07/18 06:17:12;;;;;;;15.85;6.10;;;16.10;89.40;;;;;;5071684;28;20903;-48
2023/07/18 06:19:38;;;;;;;11.70;4.68;;;16.20;89.60;;;;;;5057045;28;20025;-47
2023/07/18 06:22:05;;;;;;;13.23;5.57;;;16.30;89.60;;;;;;5070880;28;20041;-47
2023/07/18 06:24:32;;;;;;;15.55;5.30;;;16.40;89.20;;;;;;5055801;28;20029;-46
2023/07/18 06:26:59;;;;;;;9.10;4.50;;;16.50;88.80;;;;;;5046689;28;20028;-51
2023/07/18 06:29:28;;;;;;;10.50;4.43;;;16.60;88.30;;;;;;5074822;28;20099;-48
2023/07/18 06:31:58;;;;;;;10.45;4.45;;;16.70;88.20;;;;;;5073596;28;20116;-48
2023/07/18 06:34:30;;;;;;;10.50;4.78;;;16.70;87.60;;;;;;5057417;28;20033;-48
2023/07/18 06:37:02;;;;;;;11.60;3.80;;;16.90;87.30;;;;;;5056984;28;20112;-48
2023/07/18 06:39:29;;;;;;;9.15;4.07;;;16.90;87.30;;;;;;5056677;28;20040;-48
2023/07/18 06:41:57;;;;;;;11.43;4.28;;;17.00;86.70;;;;;;5072014;28;20028;-48
2023/07/18 06:44:23;;;;;;;10.15;3.58;;;17.10;86.20;;;;;;5075811;28;20115;-48
2023/07/18 06:46:50;;;;;;;9.05;3.47;;;17.30;86.40;;;;;;5057210;28;20381;-48
2023/07/18 06:49:18;;;;;;;7.15;4.13;;;17.40;85.70;;;;;;5072933;28;20021;-50
2023/07/18 06:51:45;;;;;;;8.32;4.20;;;17.50;85.30;;;;;;5075726;28;20433;-49
2023/07/18 06:54:13;;;;;;;9.20;3.22;;;17.70;85.20;;;;;;5057645;28;20033;-49
2023/07/18 06:56:42;;;;;;;11.55;4.43;;;17.90;84.50;;;;;;5070539;28;20086;-51
2023/07/18 06:59:13;;;;;;;8.95;3.30;;;17.90;83.00;;;;;;5062889;28;20108;-50
2023/07/18 07:01:40;;;;;;;7.90;3.63;;;17.80;83.50;;;;;;5054365;28;20180;-49
2023/07/18 07:04:07;;;;;;;8.88;4.22;;;17.90;83.10;;;;;;5074391;28;20123;-49
2023/07/18 07:06:33;;;;;;;8.70;3.47;;;18.00;82.70;;;;;;5052792;28;20029;-48
2023/07/18 07:09:04;;;;;;;8.30;3.65;;;18.20;82.70;;;;;;5057397;28;20033;-52
2023/07/18 07:11:30;;;;;;;10.02;3.42;;;18.30;82.40;;;;;;5055691;28;20041;-49
2023/07/18 07:13:58;;;;;;;8.48;3.30;;;18.20;81.90;;;;;;5069884;28;20040;-51
2023/07/18 07:16:27;;;;;;;9.07;2.97;;;18.30;82.00;;;;;;5066755;28;20025;-51
2023/07/18 07:18:58;;;;;;;8.50;3.72;;;18.30;81.50;;;;;;5055294;28;20048;-51
2023/07/18 07:21:27;;;;;;;9.60;3.53;;;18.40;81.40;;;;;;5072680;28;20048;-49
2023/07/18 07:23:59;;;;;;;6.83;2.47;;;18.40;80.70;;;;;;5073330;28;20048;-49
2023/07/18 07:26:26;;;;;;;6.90;2.53;;;18.60;80.60;;;;;;5075150;28;20102;-49
2023/07/18 07:28:53;;;;;;;9.20;3.88;;;18.90;80.00;;;;;;5053066;28;20411;-49
2023/07/18 07:31:18;;;;;;;7.60;2.97;;;19.00;80.20;;;;;;5065634;28;20056;-49
2023/07/18 07:33:44;;;;;;;11.13;3.42;;;19.20;79.40;;;;;;5073173;28;20056;-51
2023/07/18 07:36:10;;;;;;;10.20;3.05;;;19.40;79.10;;;;;;5053302;28;20039;-49
2023/07/18 07:38:37;;;;;;;7.90;2.72;;;19.60;78.50;;;;;;5055595;28;20037;-49
2023/07/18 07:41:08;;;;;;;5.82;2.92;;;19.90;77.80;;;;;;5069865;28;20484;-51
2023/07/18 07:43:39;;;;;;;9.18;3.03;;;19.90;75.40;;;;;;5067503;28;20040;-49
2023/07/18 07:46:06;;;;;;;7.65;2.47;;;20.10;76.50;;;;;;5065784;28;20465;-49
2023/07/18 07:48:32;;;;;;;8.63;3.05;;;20.30;76.80;;;;;;5070823;28;20028;-53
2023/07/18 07:51:03;;;;;;;10.73;2.95;;;20.40;75.50;;;;;;5073380;28;20035;-52
2023/07/18 07:53:30;;;;;;;9.30;2.65;;;20.60;74.40;;;;;;5055808;28;20078;-51
2023/07/18 07:55:57;;;;;;;10.57;3.25;;;20.80;74.60;;;;;;5056507;28;20048;-49
2023/07/18 07:58:24;;;;;;;7.68;2.70;;;20.70;73.40;;;;;;5056543;28;20024;-51
2023/07/18 08:00:50;;;;;;;8.20;2.70;;;20.90;73.40;;;;;;5068859;28;20119;-53
2023/07/18 08:03:19;;;;;;;8.07;2.30;;;20.90;73.80;;;;;;5072896;28;20444;-49
2023/07/18 08:05:45;;;;;;;7.32;2.53;;;20.90;73.30;;;;;;5071779;28;20354;-53
2023/07/18 08:08:12;;;;;;;8.63;2.60;;;20.90;74.20;;;;;;5069778;28;20028;-50
2023/07/18 08:10:40;;;;;;;8.80;3.35;;;21.30;73.50;;;;;;5063130;28;20040;-49
2023/07/18 08:13:07;;;;;;;9.07;3.13;;;21.50;71.70;;;;;;5054308;28;20029;-50
2023/07/18 08:15:36;;;;;;;8.18;3.38;;;21.60;70.50;;;;;;5067286;28;20028;-49
2023/07/18 08:18:07;;;;;;;7.20;2.45;;;21.70;71.00;;;;;;5064682;28;20115;-49
2023/07/18 08:20:35;;;;;;;7.55;2.72;;;21.90;70.10;;;;;;5053803;28;20049;-50
2023/07/18 08:23:02;;;;;;;9.15;2.67;;;22.00;68.90;;;;;;5053581;28;20083;-49
2023/07/18 08:25:31;;;;;;;6.43;1.83;;;21.90;69.00;;;;;;5052366;28;20052;-50
2023/07/18 08:27:59;;;;;;;5.88;2.03;;;21.80;68.50;;;;;;5073919;28;20434;-49
2023/07/18 08:30:26;;;;;;;8.73;2.58;;;22.20;67.80;;;;;;5065582;28;20029;-50
2023/07/18 08:32:53;;;;;;;6.28;2.05;;;22.00;69.20;;;;;;5073320;28;20060;-49
2023/07/18 08:35:20;;;;;;;5.38;2.22;;;22.10;67.00;;;;;;5071934;28;20028;-54
2023/07/18 08:37:47;;;;;;;6.97;1.83;;;22.20;68.10;;;;;;5051808;28;20039;-49
2023/07/18 08:40:17;;;;;;;5.18;1.92;;;22.70;66.70;;;;;;5068586;28;20123;-49
2023/07/18 08:42:44;;;;;;;;;;;22.90;67.80;;;;;;5069743;28;20519;-49
2023/07/18 08:45:14;;;;;;;7.93;2.50;;;23.10;64.90;;;;;;5054406;28;19908;-48
2023/07/18 08:47:45;;;;;;;8.13;2.38;;;23.90;65.90;;;;;;5071646;28;20051;-47
2023/07/18 08:50:11;;;;;;;5.88;2.35;;;24.10;63.80;;;;;;5047985;28;20029;-49
2023/07/18 08:52:38;;;;;;;5.13;2.03;;;24.30;62.40;;;;;;5054801;28;20025;-50
2023/07/18 08:55:06;;;;;;;4.82;1.48;;;24.50;62.40;;;;;;5071298;28;20099;-50
2023/07/18 08:57:39;;;;;;;4.85;2.08;;;24.40;63.30;;;;;;5069443;28;20017;-52
2023/07/18 09:00:07;;;;;;;5.10;1.73;;;25.00;60.20;;;;;;5053188;28;20052;-48
2023/07/18 09:02:37;;;;;;;4.67;1.60;;;25.00;56.90;;;;;;5064495;28;20040;-49
2023/07/18 09:05:04;;;;;;;4.75;1.73;;;24.60;57.90;;;;;;5069659;28;20056;-50
2023/07/18 09:07:35;;;;;;;6.15;1.88;;;24.40;57.90;;;;;;5054847;28;20059;-51
2023/07/18 09:10:03;;;;;;;4.05;1.67;;;23.70;58.50;;;;;;5064392;28;20041;-48
2023/07/18 09:12:35;;;;;;;3.20;1.42;;;23.20;61.90;;;;;;5071527;28;20048;-51
2023/07/18 09:15:04;;;;;;;3.85;1.33;;;22.60;61.70;;;;;;5065651;28;20513;-51
2023/07/18 09:17:34;;;;;;;7.40;1.90;;;22.30;62.60;;;;;;5072561;28;20029;-50
2023/07/18 09:20:08;;;;;;;5.70;1.83;;;22.20;64.70;;;;;;5057884;28;20041;-48
2023/07/18 09:22:43;;;;;;;8.02;2.38;;;22.00;65.90;;;;;;5058114;28;20073;-48
2023/07/18 09:25:14;;;;;;;5.32;1.95;;;21.90;66.40;;;;;;5070196;28;20119;-48
2023/07/18 09:27:42;;;;;;;6.93;2.65;;;21.60;65.90;;;;;;5052992;28;20055;-47
2023/07/18 09:30:08;;;;;;;6.60;2.20;;;21.80;66.60;;;;;;5052620;28;20029;-48
2023/07/18 09:32:35;;;;;;;7.13;2.38;;;21.80;66.20;;;;;;5070476;28;20062;-52
2023/07/18 09:35:03;;;;;;;5.45;2.47;;;21.60;68.00;;;;;;5053120;28;20021;-50
2023/07/18 09:37:29;;;;;;;6.82;1.83;;;21.40;66.30;;;;;;5067979;28;20077;-52
2023/07/18 09:39:59;;;;;;;7.55;1.90;;;21.30;67.50;;;;;;5072692;28;20342;-48
2023/07/18 09:42:27;;;;;;;6.78;2.47;;;21.60;67.70;;;;;;5059504;28;20086;-48
2023/07/18 09:44:55;;;;;;;6.15;1.85;;;21.70;66.70;;;;;;5060702;28;20328;-48
2023/07/18 09:47:23;;;;;;;4.22;1.90;;;21.50;67.30;;;;;;5069593;28;20068;-49
2023/07/18 09:49:50;;;;;;;6.18;2.40;;;21.40;65.30;;;;;;5072067;28;20028;-49
2023/07/18 09:52:23;;;;;;;7.65;2.90;;;21.20;65.90;;;;;;5069598;28;20044;-50
2023/07/18 09:54:52;;;;;;;10.27;2.72;;;21.40;67.00;;;;;;5060612;28;20051;-47
2023/07/18 09:57:19;;;;;;;3.45;1.35;;;21.70;67.50;;;;;;5072678;28;20032;-52
2023/07/18 09:59:48;;;;;;;4.80;1.92;;;22.10;67.50;;;;;;5053761;28;20455;-49
2023/07/18 10:02:15;;;;;;;5.43;2.45;;;22.40;64.30;;;;;;5070546;28;20044;-48
2023/07/18 10:04:43;;;;;;;5.90;2.55;;;22.40;64.00;;;;;;5069098;28;20024;-49
2023/07/18 10:07:10;;;;;;;6.35;1.92;;;22.60;63.20;;;;;;5072725;28;20426;-49
2023/07/18 10:09:38;;;;;;;4.90;1.67;;;22.40;63.70;;;;;;5051377;28;20035;-48
2023/07/18 10:12:07;;;;;;;6.25;2.00;;;22.40;64.20;;;;;;5054294;28;20074;-50
2023/07/18 10:14:56;;;;;;;4.75;1.88;;;22.70;64.50;;;;;;5071881;28;20379;-50
2023/07/18 10:17:27;;;;;;;3.60;1.10;;;22.90;62.60;;;;;;5053123;28;20513;-52
2023/07/18 10:19:53;;;;;;;5.18;1.73;;;23.10;61.20;;;;;;5067902;28;20482;-51
2023/07/18 10:22:29;;;;;;;7.25;1.90;;;23.20;61.20;;;;;;5072374;28;20162;-52
2023/07/18 10:25:07;;;;;;;6.95;2.28;;;23.40;62.40;;;;;;5072436;28;20040;-49
2023/07/18 10:27:43;;;;;;;8.85;1.85;;;22.90;61.20;;;;;;5060798;28;20332;-47
2023/07/18 10:30:18;;;;;;;6.07;1.40;;;22.80;62.10;;;;;;5061881;28;20521;-49
2023/07/18 10:32:56;;;;;;;6.38;1.42;;;22.60;60.60;;;;;;5071376;28;20040;-52
2023/07/18 10:35:26;;;;;;;3.85;1.50;;;23.00;62.20;;;;;;5070368;28;20025;-48
2023/07/18 10:38:02;;;;;;;4.72;1.60;;;23.00;60.50;;;;;;5070437;28;20028;-48
2023/07/18 10:40:31;;;;;;;5.63;1.55;;;23.40;63.20;;;;;;5053874;28;20033;-50
2023/07/18 10:42:57;;;;;;;3.80;1.13;;;23.90;60.20;;;;;;5062508;28;20039;-50
2023/07/18 10:45:24;;;;;;;4.70;1.88;;;24.10;60.90;;;;;;5067333;28;20032;-49
2023/07/18 10:47:50;;;;;;;3.22;1.20;;;24.10;59.00;;;;;;5061297;28;20343;-49
2023/07/18 10:50:19;;;;;;;2.80;1.08;;;24.00;56.40;;;;;;5069695;28;20040;-48
2023/07/18 10:52:46;;;;;;;2.35;0.90;;;23.80;57.60;;;;;;5055618;28;20029;-49
2023/07/18 10:55:16;;;;;;;4.75;1.27;;;23.60;55.90;;;;;;5055614;28;20442;-50
2023/07/18 10:57:44;;;;;;;5.10;1.38;;;23.50;55.50;;;;;;5058765;28;20047;-49
2023/07/18 11:00:11;;;;;;;4.28;1.33;;;23.20;56.50;;;;;;5071566;28;20024;-52
2023/07/18 11:02:42;;;;;;;4.15;1.40;;;22.80;57.90;;;;;;5061249;28;20405;-50
2023/07/18 11:05:11;;;;;;;4.53;1.88;;;22.70;58.20;;;;;;5074024;28;20028;-51
2023/07/18 11:07:40;;;;;;;3.63;1.27;;;22.40;57.40;;;;;;5072068;28;20081;-51
2023/07/18 11:10:08;;;;;;;;;;;22.20;58.20;;;;;;5071603;28;20107;-52
2023/07/18 11:12:35;;;;;;;3.60;1.15;;;22.20;60.30;;;;;;5071925;28;19927;-50
2023/07/18 11:15:06;;;;;;;3.75;1.20;;;22.10;59.10;;;;;;5075269;28;20085;-53
2023/07/18 11:17:33;;;;;;;3.60;1.08;;;22.20;60.40;;;;;;5037569;28;20025;-50
2023/07/18 11:19:59;;;;;;;3.55;1.08;;;21.80;60.00;;;;;;5072992;28;20032;-53
2023/07/18 11:22:28;;;;;;;5.13;1.30;;;21.60;61.90;;;;;;5073120;28;20166;-53
2023/07/18 11:24:55;;;;;;;3.28;1.20;;;21.50;62.10;;;;;;5062658;28;20064;-50
2023/07/18 11:27:27;;;;;;;4.70;1.75;;;21.30;63.00;;;;;;5068220;28;20466;-53
2023/07/18 11:30:11;;;;;;;4.10;1.17;;;20.80;62.60;;;;;;5069016;28;20607;-55
2023/07/18 11:32:45;;;;;;;4.47;1.40;;;20.60;64.10;;;;;;5073339;28;20032;-54
2023/07/18 11:35:22;;;;;;;5.15;1.63;;;20.50;64.90;;;;;;5063612;28;20033;-49
2023/07/18 11:37:53;;;;;;;4.57;1.58;;;20.80;65.60;;;;;;5054904;28;20025;-51
2023/07/18 11:40:25;;;;;;;4.95;1.42;;;20.90;65.30;;;;;;5053753;28;20095;-49
2023/07/18 11:42:58;;;;;;;4.53;1.48;;;21.00;64.50;;;;;;5056093;28;20039;-52
2023/07/18 11:45:27;;;;;;;3.42;1.35;;;21.40;67.10;;;;;;5065124;28;20044;-51
2023/07/18 11:47:58;;;;;;;3.50;1.00;;;22.00;63.10;;;;;;5055410;28;20028;-53
2023/07/18 11:50:29;;;;;;;2.72;1.20;;;22.10;61.40;;;;;;5056678;28;20028;-51
2023/07/18 11:52:58;;;;;;;2.58;0.80;;;21.90;58.60;;;;;;5074264;28;20107;-52
2023/07/18 11:55:25;;;;;;;9.90;1.40;;;21.80;58.90;;;;;;5053439;28;20148;-52
2023/07/18 11:57:52;;;;;;;4.43;1.40;;;21.80;60.30;;;;;;5074360;28;20039;-51
2023/07/18 12:00:18;;;;;;;3.80;1.30;;;21.70;64.00;;;;;;5072111;28;20028;-50
2023/07/18 12:02:45;;;;;;;5.30;1.52;;;21.70;65.00;;;;;;5069319;28;20478;-54
2023/07/18 12:05:18;;;;;;;8.50;1.67;;;21.90;65.70;;;;;;5064858;28;20063;-53
2023/07/18 12:07:45;;;;;;;3.58;1.02;;;22.00;65.70;;;;;;5072853;28;20119;-49
2023/07/18 12:10:12;;;;;;;4.53;1.38;;;22.20;63.20;;;;;;5056569;28;20357;-53
2023/07/18 12:12:39;;;;;;;4.63;1.48;;;22.10;62.00;;;;;;5059574;28;20033;-53
2023/07/18 12:15:09;;;;;;;5.57;1.20;;;22.10;60.60;;;;;;5069070;28;20032;-54
2023/07/18 12:17:37;;;;;;;3.65;1.38;;;22.00;62.50;;;;;;5070406;28;20516;-50
2023/07/18 12:20:06;;;;;;;4.35;1.75;;;22.00;62.30;;;;;;5070444;28;20040;-48
2023/07/18 12:22:32;;;;;;;4.10;1.40;;;22.00;62.50;;;;;;5073883;28;20040;-52
2023/07/18 12:25:02;;;;;;;4.13;1.35;;;21.90;61.60;;;;;;5069563;28;20373;-53
2023/07/18 12:27:30;;;;;;;1.95;0.80;;;21.70;61.30;;;;;;5055413;28;20035;-51
2023/07/18 12:29:56;;;;;;;2.33;0.90;;;21.50;57.80;;;;;;5073171;28;20065;-52
2023/07/18 12:32:26;;;;;;;2.65;1.02;;;21.40;59.00;;;;;;5068138;28;20060;-48
2023/07/18 12:34:53;;;;;;;2.95;0.95;;;21.70;60.40;;;;;;5074023;28;20383;-50
2023/07/18 12:37:20;;;;;;;2.10;0.77;;;22.00;59.20;;;;;;5072350;28;20025;-52
2023/07/18 12:39:47;;;;;;;4.88;1.05;;;22.10;58.00;;;;;;5062199;28;20079;-48
2023/07/18 12:42:14;;;;;;;4.57;1.25;;;22.20;58.30;;;;;;5055971;28;20409;-48
2023/07/18 12:44:46;;;;;;;2.35;0.80;;;22.40;60.30;;;;;;5071640;28;20341;-50
2023/07/18 12:47:13;;;;;;;3.45;0.90;;;22.60;57.90;;;;;;5069529;28;20381;-50
2023/07/18 12:49:42;;;;;;;3.92;1.00;;;22.60;59.30;;;;;;5073447;28;20017;-49